Nearby METAR Reports

 

KSJC - San Jose, California, USA
Distance from station: NE 14km
Updated: 2022-05-21 02:53
Clear
Clear
 Wind from NW
Wind: NW 6 km/h
Temperature: 15°C
Dew Point: 7°C
Humidity: 59%
Barometer: 1010.2 hPa
Clouds: Clear
Visibility: 16 km
2022/05/21 07:53 KSJC 210753Z AUTO 32003KT 10SM CLR 15/07 A2983 RMK AO2 SLP102 T01500067 402610106
KNUQ - Moffett Nas/Mtn, California, USA
Distance from station: N 14km
Updated: 2022-05-21 03:10
Clear
Clear
 Wind from calm
Wind: Calm
Temperature: 14°C
Dew Point: 9°C
Humidity: 72%
Barometer: 1010.5 hPa
Clouds: Clear
Visibility: 16 km
2022/05/21 08:10 KNUQ 210810Z AUTO 00000KT 10SM CLR 14/09 A2984 RMK AO2
 
KPAO - Palo Alto, California, USA
Distance from station: NNW 23km
Updated: 2022-05-20 22:47
NOT Current
Clear
Clear
 Wind from N
Wind: N 15 km/h
Temperature: 16°C
Dew Point: 10°C
Humidity: 68%
Barometer: 1009.8 hPa
Clouds: Clear
Visibility: 16 km
2022/05/21 03:47 KPAO 210347Z 36008KT 10SM SKC 16/10 A2982 RMK LAST
KRHV - San Jose/Reid, California, USA
Distance from station: ENE 19km
Updated: 2022-05-20 23:55
NOT Current
Clear
Clear
 Wind from N
Wind: N 9 km/h
Temperature: 18°C
Dew Point: 2°C
Humidity: 34%
Barometer: 1010.5 hPa
Clouds: Clear
Visibility: 16 km
2022/05/21 04:55 KRHV 210455Z 35005KT 10SM SKC 18/02 A2984 RMK LAST
 
KOAK - Oakland, California, USA
Distance from station: NNW 50km
Updated: 2022-05-21 02:53
Clear
Clear
 Wind from NW
Wind: NW 13 km/h
Temperature: 12°C
Dew Point: 8°C
Humidity: 77%
Barometer: 1010.5 hPa
Clouds: Clear
Visibility: 16 km
2022/05/21 07:53 KOAK 210753Z 31007KT 10SM CLR 12/08 A2984 RMK AO2 SLP104 T01220083 402390111
KSQL - San Carlos Airpo, California, USA
Distance from station: NW 34km
Updated: 2022-05-21 03:15
Clear
Clear
 Wind from calm
Wind: Calm
Temperature: 13°C
Dew Point: 5°C
Humidity: 59%
Barometer: 1010.8 hPa
Clouds: Clear
Visibility: 16 km
2022/05/21 08:15 KSQL 210815Z AUTO 00000KT 10SM CLR 13/05 A2985 RMK AO2
 
KSFO - San Francisco, California, USA
Distance from station: NW 49km
Updated: 2022-05-21 02:56
Clear
Clear
 Wind from WNW
Wind: WNW 15 km/h
Temperature: 12°C
Dew Point: 7°C
Humidity: 72%
Barometer: 1010.5 hPa
Clouds: Clear
Visibility: 16 km
2022/05/21 07:56 KSFO 210756Z 30008KT 10SM CLR 12/07 A2984 RMK AO2 SLP103 T01170067 402280100
KE16 - San Martin, California, USA
Distance from station: ESE 43km
Updated: 2022-05-21 03:15
Clear
Clear
 Wind from calm
Wind: Calm
Temperature: 13°C
Dew Point: 1°C
Humidity: 44%
Barometer: 1011.5 hPa
Clouds: Clear
Visibility: 16 km
2022/05/21 08:15 KE16 210815Z AUTO 00000KT 10SM CLR 13/01 A2987 RMK AO2
 
KWVI - Watsonville, California, USA
Distance from station: SSE 44km
Updated: 2022-05-21 02:53
Clear
Clear
 Wind from calm
Wind: Calm
Temperature: 8°C
Dew Point: 6°C
Humidity: 87%
Barometer: 1011.2 hPa
Clouds: Clear
Visibility: 16 km
2022/05/21 07:53 KWVI 210753Z AUTO 00000KT 10SM CLR 08/06 A2986 RMK AO2 SLP111 T00830056 402280067
KHAF - Half Moon Bay, California, USA
Distance from station: WNW 50km
Updated: 2022-05-21 03:15
Mist, Clear
Mist, Clear
 Wind from calm
Wind: Calm
Temperature: 5°C
Dew Point: 5°C
Humidity: 100%
Barometer: 1011.5 hPa
Summary: Mist
Clouds: Clear
Visibility: 8 km
2022/05/21 08:15 KHAF 210815Z AUTO 00000KT 5SM BR CLR 05/05 A2987 RMK AO2
 
KHWD - Hayward, California, USA
Distance from station: N 44km
Updated: 2022-05-21 02:54
Clear
Clear
 Wind from NNE
Wind: NNE 6 km/h
Temperature: 13°C
Dew Point: 8°C
Humidity: 72%
Barometer: 1010.2 hPa
Clouds: Clear
Visibility: 16 km
2022/05/21 07:54 KHWD 210754Z 02003KT 10SM CLR 13/08 A2983 RMK AO2 SLP110 T01330078 402280100
KLVK - Livermore, California, USA
Distance from station: NNE 51km
Updated: 2022-05-21 02:53
Clear
Clear
 Wind from ENE
Wind: ENE 6 km/h
Temperature: 12°C
Dew Point: 3°C
Humidity: 54%
Barometer: 1009.8 hPa
Clouds: Clear
Visibility: 16 km
2022/05/21 07:53 KLVK 210753Z AUTO 07003KT 10SM CLR 12/03 A2982 RMK AO2 SLP096 T01170028 402670089